Time;durP1;ratioP1;P1;durP2;ratioP2;P2;SDS_P1;SDS_P2;PMS_P1;PMS_P2;Temp;Humidity;BMP_temperature;BMP_pressure;BME280_temperature;BME280_humidity;BME280_pressure;Samples;Min_cycle;Max_cycle;Signal;HPM_P1;HPM_P2
2022/08/13 00:00:50;;;;;;;10.80;5.20;;;;;18.32;97298.20;;;;111053;1249;41261;-63
2022/08/13 00:03:19;;;;;;;9.70;4.60;;;;;18.34;97299.60;;;;110934;1249;41141;-62
2022/08/13 00:06:10;;;;;;;9.20;4.70;;;;;18.38;97296.20;;;;110834;1248;41261;-63
2022/08/13 00:08:56;;;;;;;10.30;4.30;;;;;18.30;97290.60;;;;110691;1250;42428;-62
2022/08/13 00:14:32;;;;;;;11.40;5.30;;;;;18.30;97278.80;;;;110882;1250;41273;-63
2022/08/13 00:17:07;;;;;;;13.00;7.00;;;;;18.30;97277.40;;;;110889;1251;41192;-63
2022/08/13 00:19:43;;;;;;;15.00;7.60;;;;;18.22;97278.20;;;;110733;1251;41251;-62
2022/08/13 00:22:14;;;;;;;15.30;7.10;;;;;18.20;97279.60;;;;110815;1250;42084;-63
2022/08/13 00:25:01;;;;;;;15.50;7.70;;;;;18.20;97280.20;;;;110972;1248;42415;-62
2022/08/13 00:27:30;;;;;;;15.70;7.30;;;;;18.10;97285.20;;;;110934;1250;41794;-62
2022/08/13 00:30:14;;;;;;;15.10;7.20;;;;;18.10;97286.60;;;;110839;1248;41257;-63
2022/08/13 00:32:54;;;;;;;13.00;7.10;;;;;18.10;97284.80;;;;110592;1249;41153;-63
2022/08/13 00:35:25;;;;;;;14.40;7.40;;;;;18.00;97288.60;;;;110846;1250;41144;-62
2022/08/13 00:38:13;;;;;;;13.60;7.60;;;;;18.00;97290.60;;;;110916;1248;41759;-62
2022/08/13 00:40:50;;;;;;;12.80;6.50;;;;;18.00;97294.60;;;;110944;1247;41127;-62
2022/08/13 00:43:27;;;;;;;15.40;7.10;;;;;17.92;97293.00;;;;110595;1250;41136;-63
2022/08/13 00:46:02;;;;;;;11.80;5.90;;;;;17.90;97296.60;;;;110647;1250;41158;-63
2022/08/13 00:48:46;;;;;;;13.20;6.40;;;;;17.90;97293.60;;;;110740;1247;41534;-63
2022/08/13 00:51:22;;;;;;;11.70;5.60;;;;;17.80;97300.20;;;;110662;1250;41265;-63
2022/08/13 00:54:14;;;;;;;11.20;5.20;;;;;17.80;97296.00;;;;110884;1250;41616;-64
2022/08/13 00:56:46;;;;;;;15.40;6.10;;;;;17.70;97291.00;;;;110976;1247;41130;-63
2022/08/13 00:59:15;;;;;;;10.10;4.60;;;;;17.70;97295.80;;;;110678;1250;42028;-63
2022/08/13 01:01:46;;;;;;;10.70;4.20;;;;;17.60;97290.40;;;;110780;1248;41143;-63
2022/08/13 01:04:20;;;;;;;9.70;4.10;;;;;17.60;97282.80;;;;111014;1248;42376;-63
2022/08/13 01:06:57;;;;;;;11.20;4.50;;;;;17.54;97282.40;;;;111055;1249;41397;-62
2022/08/13 01:09:32;;;;;;;10.50;5.10;;;;;17.50;97281.80;;;;111079;1248;41143;-63
2022/08/13 01:12:23;;;;;;;10.30;5.10;;;;;17.40;97271.60;;;;111038;1247;41139;-62
2022/08/13 01:14:59;;;;;;;10.50;4.10;;;;;17.40;97274.40;;;;110937;1249;41936;-62
2022/08/13 01:17:30;;;;;;;9.20;4.20;;;;;17.32;97272.40;;;;110933;1250;41240;-63
2022/08/13 01:20:20;;;;;;;9.70;4.50;;;;;17.30;97272.20;;;;110929;1247;41144;-63
2022/08/13 01:23:04;;;;;;;10.90;4.60;;;;;17.30;97275.80;;;;110933;1249;41318;-62
2022/08/13 01:25:37;;;;;;;12.60;6.10;;;;;17.28;97275.80;;;;110892;1249;41471;-64
2022/08/13 01:28:23;;;;;;;11.80;4.70;;;;;17.26;97272.40;;;;111035;1248;41537;-64
2022/08/13 01:31:04;;;;;;;8.40;3.90;;;;;17.20;97271.40;;;;111122;1249;41131;-64
2022/08/13 01:33:38;;;;;;;9.60;4.30;;;;;17.20;97262.40;;;;111153;1250;42119;-64
2022/08/13 01:36:16;;;;;;;13.20;6.10;;;;;17.10;97258.60;;;;111113;1248;41251;-63
2022/08/13 01:38:45;;;;;;;13.20;6.80;;;;;17.10;97256.60;;;;111205;1249;41272;-63
2022/08/13 01:41:14;;;;;;;11.40;5.30;;;;;17.10;97255.60;;;;110951;1247;41627;-63
2022/08/13 01:43:45;;;;;;;9.70;4.20;;;;;17.08;97248.80;;;;111107;1248;41184;-63
2022/08/13 01:46:15;;;;;;;8.70;4.20;;;;;17.00;97252.20;;;;111049;1247;41589;-62
2022/08/13 01:51:36;;;;;;;11.80;5.90;;;;;16.90;97241.00;;;;111078;1247;41159;-62
2022/08/13 01:54:12;;;;;;;10.70;5.40;;;;;16.80;97240.40;;;;111242;1248;43247;-63
2022/08/13 01:57:06;;;;;;;11.90;5.90;;;;;16.70;97239.60;;;;110943;1248;41138;-62
2022/08/13 01:59:38;;;;;;;10.60;5.30;;;;;16.60;97241.80;;;;111140;1247;41143;-63
2022/08/13 02:02:28;;;;;;;12.80;4.50;;;;;16.60;97239.00;;;;111106;1247;41627;-63
2022/08/13 02:05:03;;;;;;;13.60;5.70;;;;;16.60;97241.40;;;;110865;1248;41581;-63
2022/08/13 02:07:39;;;;;;;14.00;6.20;;;;;16.50;97242.20;;;;111031;1249;41140;-63
2022/08/13 02:10:29;;;;;;;11.60;5.30;;;;;16.40;97244.60;;;;111048;1247;41390;-63
2022/08/13 02:12:59;;;;;;;9.30;4.40;;;;;16.40;97249.40;;;;111030;1249;41698;-62
2022/08/13 02:15:31;;;;;;;11.30;5.30;;;;;16.40;97250.60;;;;110779;1248;41156;-62
2022/08/13 02:18:19;;;;;;;14.30;6.80;;;;;16.40;97245.40;;;;111171;1248;41260;-63
2022/08/13 02:20:53;;;;;;;12.90;6.10;;;;;16.20;97246.60;;;;111039;1247;41709;-63
2022/08/13 02:23:30;;;;;;;11.50;5.10;;;;;16.20;97249.80;;;;110959;1249;41616;-62
2022/08/13 02:26:23;;;;;;;9.00;4.10;;;;;16.20;97252.00;;;;110806;1251;41735;-62
2022/08/13 02:28:57;;;;;;;8.60;4.00;;;;;16.20;97243.80;;;;110875;1248;41144;-63
2022/08/13 02:31:28;;;;;;;11.80;4.20;;;;;16.20;97241.00;;;;111098;1247;41246;-62
2022/08/13 02:34:19;;;;;;;9.20;4.00;;;;;16.20;97234.40;;;;111089;1248;41632;-64
2022/08/13 02:36:50;;;;;;;9.40;4.20;;;;;16.20;97230.20;;;;111058;1249;41803;-63
2022/08/13 02:39:30;;;;;;;11.40;5.60;;;;;16.20;97228.60;;;;111068;1248;41169;-63
2022/08/13 02:42:12;;;;;;;14.10;6.30;;;;;16.10;97226.80;;;;110999;1249;41147;-62
2022/08/13 02:44:48;;;;;;;14.80;6.90;;;;;16.00;97227.40;;;;110982;1247;41265;-62
2022/08/13 02:47:21;;;;;;;12.40;6.20;;;;;15.90;97227.20;;;;110930;1249;41139;-62
2022/08/13 02:50:02;;;;;;;10.50;5.10;;;;;15.90;97230.40;;;;111112;1247;41148;-63
2022/08/13 02:52:33;;;;;;;10.80;4.80;;;;;15.90;97229.20;;;;110929;1249;41609;-63
2022/08/13 02:55:04;;;;;;;10.20;4.80;;;;;15.90;97227.80;;;;111045;1247;42654;-62
2022/08/13 02:57:34;;;;;;;10.80;5.00;;;;;15.90;97228.40;;;;111078;1249;42167;-63
2022/08/13 03:00:04;;;;;;;10.60;4.20;;;;;15.90;97227.20;;;;111082;1247;41610;-63
2022/08/13 03:02:39;;;;;;;9.40;4.40;;;;;15.90;97222.80;;;;111121;1248;41186;-64
2022/08/13 03:05:11;;;;;;;10.80;4.80;;;;;15.90;97225.00;;;;111098;1247;41910;-63
2022/08/13 03:07:47;;;;;;;9.50;4.30;;;;;15.90;97229.00;;;;110862;1248;41273;-63
2022/08/13 03:10:23;;;;;;;8.90;4.00;;;;;15.90;97222.60;;;;110979;1249;41462;-62
2022/08/13 03:13:17;;;;;;;8.20;3.80;;;;;15.90;97224.80;;;;110976;1249;41202;-63
2022/08/13 03:15:53;;;;;;;11.90;5.80;;;;;15.90;97226.80;;;;111059;1247;41716;-63
2022/08/13 03:18:31;;;;;;;11.20;5.30;;;;;15.90;97231.40;;;;111039;1248;41143;-63
2022/08/13 03:21:41;;;;;;;10.00;4.60;;;;;15.88;97230.20;;;;110922;1248;41248;-63
2022/08/13 03:24:15;;;;;;;9.70;4.30;;;;;15.90;97227.80;;;;110915;1248;42538;-63
2022/08/13 03:26:51;;;;;;;7.90;3.60;;;;;15.88;97231.80;;;;110765;1250;41152;-62
2022/08/13 03:29:23;;;;;;;9.50;4.50;;;;;15.90;97231.40;;;;111028;1247;41149;-62
2022/08/13 03:31:58;;;;;;;10.00;4.70;;;;;15.90;97233.20;;;;110970;1249;41974;-63
2022/08/13 03:34:28;;;;;;;11.00;5.70;;;;;15.90;97232.40;;;;110962;1247;42425;-63
2022/08/13 03:36:58;;;;;;;13.00;6.50;;;;;15.90;97230.20;;;;110969;1248;41166;-63
2022/08/13 03:39:29;;;;;;;14.10;7.00;;;;;15.86;97231.00;;;;111016;1247;41149;-63
2022/08/13 03:42:00;;;;;;;14.20;6.40;;;;;15.80;97228.40;;;;110993;1247;41503;-63
2022/08/13 03:44:29;;;;;;;11.70;6.50;;;;;15.78;97232.80;;;;110901;1249;41161;-63
2022/08/13 03:47:03;;;;;;;14.00;6.80;;;;;15.80;97229.60;;;;110959;1247;41614;-63
2022/08/13 03:49:53;;;;;;;14.00;7.30;;;;;15.70;97228.00;;;;110985;1247;41251;-63
2022/08/13 03:52:23;;;;;;;19.70;6.80;;;;;15.64;97230.60;;;;111119;1247;42543;-62
2022/08/13 03:55:12;;;;;;;12.40;6.30;;;;;15.68;97229.60;;;;111045;1248;41152;-63
2022/08/13 03:57:44;;;;;;;13.30;6.60;;;;;15.62;97229.40;;;;111053;1249;41175;-62
2022/08/13 04:00:36;;;;;;;13.60;5.90;;;;;15.70;97227.20;;;;111138;1249;42273;-62
2022/08/13 04:03:20;;;;;;;12.60;6.40;;;;;15.70;97227.00;;;;110947;1248;41157;-62
2022/08/13 04:05:55;;;;;;;11.90;5.70;;;;;15.80;97228.20;;;;111026;1248;41277;-63
2022/08/13 04:08:27;;;;;;;10.40;5.30;;;;;15.90;97224.40;;;;111028;1249;41704;-61
2022/08/13 04:10:57;;;;;;;10.50;5.30;;;;;16.00;97225.80;;;;110886;1247;42380;-63
2022/08/13 04:13:28;;;;;;;9.90;5.30;;;;;16.10;97217.00;;;;110991;1248;41262;-64
2022/08/13 04:16:21;;;;;;;10.40;4.80;;;;;16.58;97201.00;;;;111037;1247;42302;-63
2022/08/13 04:18:58;;;;;;;10.50;5.00;;;;;17.08;97143.60;;;;110933;1249;41134;-63
2022/08/13 04:21:31;;;;;;;13.00;6.60;;;;;17.94;97186.60;;;;111065;1248;41610;-62
2022/08/13 04:24:03;;;;;;;15.10;6.70;;;;;18.40;97199.20;;;;110941;1247;41536;-63
2022/08/13 04:26:33;;;;;;;12.70;6.30;;;;;18.80;97187.20;;;;110990;1248;41464;-62
2022/08/13 04:29:11;;;;;;;14.20;7.30;;;;;19.12;97175.80;;;;110894;1248;41234;-63
2022/08/13 04:31:40;;;;;;;12.00;5.70;;;;;19.40;97179.40;;;;111102;1247;41144;-64
2022/08/13 04:34:24;;;;;;;12.30;5.00;;;;;19.92;97166.40;;;;111132;1247;42209;-64
2022/08/13 04:37:02;;;;;;;9.80;4.60;;;;;20.56;97169.00;;;;111067;1247;41468;-64
2022/08/13 04:39:32;;;;;;;10.60;4.60;;;;;21.14;97160.60;;;;111147;1245;42484;-63
2022/08/13 04:42:22;;;;;;;11.10;4.30;;;;;21.76;97152.80;;;;111006;1249;41932;-64
2022/08/13 04:45:02;;;;;;;9.30;4.60;;;;;22.34;97143.40;;;;110874;1247;41790;-64
2022/08/13 04:47:41;;;;;;;11.70;5.80;;;;;22.86;97144.60;;;;110923;1251;41700;-64
2022/08/13 04:50:12;;;;;;;25.70;11.50;;;;;23.14;97141.00;;;;111034;1249;41938;-64
2022/08/13 04:52:41;;;;;;;25.70;12.30;;;;;23.12;97138.40;;;;109991;1248;1411176;-64
2022/08/13 04:55:17;;;;;;;17.70;9.70;;;;;23.20;97132.40;;;;110956;1248;41252;-64
2022/08/13 04:57:47;;;;;;;17.30;9.10;;;;;23.10;97134.00;;;;111088;1248;41782;-64
2022/08/13 05:00:24;;;;;;;14.80;7.20;;;;;23.12;97135.40;;;;111049;1248;41559;-64
2022/08/13 05:02:53;;;;;;;12.70;6.20;;;;;23.70;97133.60;;;;110880;1250;41397;-64
2022/08/13 05:05:24;;;;;;;12.10;5.80;;;;;24.30;97126.40;;;;111115;1248;41220;-63
2022/08/13 05:07:53;;;;;;;10.80;5.40;;;;;24.78;97129.60;;;;111056;1248;41166;-63
2022/08/13 05:10:22;;;;;;;10.90;5.40;;;;;25.10;97127.60;;;;110995;1248;41337;-63
2022/08/13 05:13:01;;;;;;;11.50;5.40;;;;;25.56;97127.40;;;;111135;1247;41168;-63
2022/08/13 05:15:31;;;;;;;13.00;4.90;;;;;26.02;97128.20;;;;111079;1247;41180;-63
2022/08/13 05:18:10;;;;;;;11.60;5.30;;;;;26.48;97133.40;;;;111069;1248;41741;-63
2022/08/13 05:20:52;;;;;;;11.40;5.30;;;;;26.90;97127.00;;;;110893;1247;41562;-63
2022/08/13 05:23:23;;;;;;;10.10;5.10;;;;;27.10;97129.40;;;;110988;1248;42160;-63
2022/08/13 05:26:12;;;;;;;10.30;5.40;;;;;27.30;97133.60;;;;111038;1249;41153;-64
2022/08/13 05:29:04;;;;;;;11.50;4.70;;;;;27.70;97133.80;;;;110993;1249;41260;-64
2022/08/13 05:31:34;;;;;;;9.70;4.30;;;;;28.20;97129.40;;;;110975;1248;41265;-64
2022/08/13 05:34:25;;;;;;;12.90;4.70;;;;;28.66;97129.00;;;;110903;1249;41274;-67
2022/08/13 05:36:55;;;;;;;11.10;4.90;;;;;29.02;97131.20;;;;110850;1250;41157;-63
2022/08/13 05:39:45;;;;;;;11.50;4.60;;;;;28.96;97125.20;;;;110891;1247;41157;-63
2022/08/13 05:42:18;;;;;;;8.80;4.10;;;;;29.10;97131.80;;;;110963;1250;42074;-64
2022/08/13 05:44:55;;;;;;;10.10;4.30;;;;;29.40;97125.00;;;;110999;1248;41185;-64
2022/08/13 05:47:24;;;;;;;9.30;3.90;;;;;29.60;97127.20;;;;111125;1247;42385;-63
2022/08/13 05:49:54;;;;;;;12.10;4.70;;;;;29.78;97127.80;;;;110962;1249;41142;-63
2022/08/13 05:52:35;;;;;;;9.00;4.30;;;;;29.90;97126.20;;;;111004;1249;41533;-64
2022/08/13 05:55:14;;;;;;;10.30;4.30;;;;;29.78;97125.60;;;;110969;1248;41254;-63
2022/08/13 05:58:04;;;;;;;10.60;4.60;;;;;29.50;97127.20;;;;110556;1251;41963;-64
2022/08/13 06:03:43;;;;;;;10.90;4.80;;;;;29.28;97139.40;;;;110678;1249;41848;-63
2022/08/13 06:06:32;;;;;;;9.60;4.10;;;;;29.22;97142.00;;;;110558;1251;41266;-63
2022/08/13 06:09:04;;;;;;;8.60;4.40;;;;;29.50;97139.20;;;;110894;1249;41660;-63
2022/08/13 06:11:40;;;;;;;8.40;3.90;;;;;29.70;97146.80;;;;110811;1249;41850;-64
2022/08/13 06:14:33;;;;;;;10.50;4.00;;;;;30.10;97144.20;;;;110911;1249;41462;-63
2022/08/13 06:17:03;;;;;;;9.80;4.00;;;;;30.52;97141.00;;;;110824;1251;41136;-62
2022/08/13 06:19:33;;;;;;;9.20;3.90;;;;;31.00;97140.40;;;;110965;1248;41149;-64
2022/08/13 06:22:04;;;;;;;9.40;4.20;;;;;31.30;97140.20;;;;110830;1249;41949;-63
2022/08/13 06:24:38;;;;;;;8.40;3.40;;;;;31.64;97139.60;;;;110824;1249;41211;-64
2022/08/13 06:27:22;;;;;;;8.60;3.70;;;;;32.00;97142.60;;;;110930;1250;41352;-64
2022/08/13 06:30:17;;;;;;;8.10;3.70;;;;;32.30;97143.00;;;;110632;1250;41737;-64
2022/08/13 06:33:02;;;;;;;9.50;4.00;;;;;32.56;97144.00;;;;110433;1251;41818;-64
2022/08/13 06:36:00;;;;;;;9.00;3.90;;;;;32.64;97143.80;;;;110724;1249;41638;-64
2022/08/13 06:38:48;;;;;;;8.70;4.00;;;;;32.60;97141.80;;;;110926;1249;41146;-64
2022/08/13 06:41:20;;;;;;;12.50;5.50;;;;;33.00;97144.00;;;;110879;1248;41946;-64
2022/08/13 06:43:52;;;;;;;8.80;3.90;;;;;32.70;97144.40;;;;110749;1249;41671;-64
2022/08/13 06:46:29;;;;;;;10.10;4.70;;;;;32.40;97146.60;;;;110665;1250;41325;-64
2022/08/13 06:48:59;;;;;;;10.30;4.60;;;;;32.06;97150.20;;;;110599;1251;42410;-64
2022/08/13 06:51:31;;;;;;;8.90;3.60;;;;;31.84;97149.00;;;;110627;1249;41160;-64
2022/08/13 06:54:08;;;;;;;8.50;3.60;;;;;32.02;97154.20;;;;110592;1250;41267;-64
2022/08/13 06:56:59;;;;;;;8.60;4.00;;;;;32.52;97153.40;;;;110930;1250;41482;-64
2022/08/13 06:59:41;;;;;;;9.20;3.90;;;;;33.10;97154.40;;;;110786;1250;41279;-64
2022/08/13 07:02:24;;;;;;;9.10;3.70;;;;;33.32;97145.60;;;;110850;1249;41139;-64
2022/08/13 07:04:55;;;;;;;9.90;3.90;;;;;33.20;97142.80;;;;110652;1251;41152;-64
2022/08/13 07:07:24;;;;;;;7.80;3.50;;;;;33.14;97142.60;;;;110681;1250;41143;-64
2022/08/13 07:09:53;;;;;;;8.60;3.60;;;;;33.40;97139.80;;;;110627;1250;41680;-64
2022/08/13 07:12:22;;;;;;;9.30;3.80;;;;;33.90;97142.40;;;;110655;1251;41260;-64
2022/08/13 07:14:52;;;;;;;8.10;3.40;;;;;34.44;97135.00;;;;110705;1249;41449;-63
2022/08/13 07:17:29;;;;;;;9.20;3.90;;;;;35.12;97131.60;;;;110590;1250;41220;-65
2022/08/13 07:20:04;;;;;;;10.20;4.00;;;;;34.62;97130.00;;;;110708;1249;41262;-65
2022/08/13 07:22:35;;;;;;;9.00;4.10;;;;;34.70;97131.40;;;;110789;1249;41213;-65
2022/08/13 07:25:30;;;;;;;8.50;3.70;;;;;33.90;97132.80;;;;110979;1249;41426;-65
2022/08/13 07:28:20;;;;;;;10.20;4.40;;;;;33.50;97135.80;;;;110933;1249;41279;-64
2022/08/13 07:31:09;;;;;;;12.10;4.20;;;;;33.70;97131.40;;;;110681;1249;41297;-65
2022/08/13 07:33:43;;;;;;;8.60;3.80;;;;;34.00;97128.20;;;;110827;1249;41611;-65
2022/08/13 07:36:28;;;;;;;10.50;4.40;;;;;34.02;97126.40;;;;110849;1250;41607;-65
2022/08/13 07:38:58;;;;;;;9.60;4.90;;;;;34.32;97120.20;;;;111010;1248;41498;-65
2022/08/13 07:41:28;;;;;;;9.60;4.60;;;;;33.86;97120.60;;;;110692;1247;41616;-64
2022/08/13 07:43:59;;;;;;;7.70;3.30;;;;;33.00;97123.80;;;;110648;1248;41727;-64
2022/08/13 07:46:35;;;;;;;9.90;4.60;;;;;33.52;97123.20;;;;110811;1250;41137;-66
2022/08/13 07:49:11;;;;;;;8.10;3.50;;;;;33.62;97122.60;;;;110967;1249;42060;-64
2022/08/13 07:51:43;;;;;;;8.40;3.40;;;;;33.80;97120.60;;;;110889;1250;41265;-64
2022/08/13 07:54:13;;;;;;;9.10;4.00;;;;;33.90;97118.00;;;;110774;1249;41635;-64
2022/08/13 07:56:47;;;;;;;8.30;3.80;;;;;33.46;97118.60;;;;110977;1249;41135;-64
2022/08/13 07:59:18;;;;;;;10.10;4.20;;;;;33.10;97123.20;;;;110939;1248;41374;-65
2022/08/13 08:01:53;;;;;;;11.10;5.20;;;;;32.80;97118.00;;;;110750;1249;41614;-64
2022/08/13 08:04:42;;;;;;;9.80;4.70;;;;;32.20;97120.80;;;;110823;1249;41257;-64
2022/08/13 08:07:16;;;;;;;9.30;3.90;;;;;32.32;97113.40;;;;110603;1250;41712;-65
2022/08/13 08:09:45;;;;;;;8.50;4.30;;;;;32.32;97108.80;;;;110691;1249;41282;-64
2022/08/13 08:15:06;;;;;;;8.40;3.50;;;;;33.76;97097.80;;;;110594;1249;41143;-65
2022/08/13 08:17:35;;;;;;;8.80;3.80;;;;;34.94;97097.20;;;;110658;1251;41271;-64
2022/08/13 08:20:25;;;;;;;8.00;3.40;;;;;36.02;97087.00;;;;110791;1250;41247;-65
2022/08/13 08:23:05;;;;;;;8.20;3.50;;;;;36.86;97088.40;;;;110645;1249;41248;-65
2022/08/13 08:25:41;;;;;;;8.90;3.70;;;;;37.46;97080.60;;;;110825;1249;41217;-64
2022/08/13 08:28:18;;;;;;;8.60;3.70;;;;;37.70;97077.60;;;;110905;1250;41941;-65
2022/08/13 08:31:07;;;;;;;8.90;3.70;;;;;38.10;97075.20;;;;110925;1250;41156;-65
2022/08/13 08:33:50;;;;;;;8.70;3.70;;;;;38.16;97075.60;;;;110855;1250;41232;-65
2022/08/13 08:36:24;;;;;;;8.00;3.10;;;;;38.50;97074.80;;;;110618;1249;41254;-65
2022/08/13 08:42:40;;;;;;;7.60;3.30;;;;;38.70;97070.80;;;;110745;1249;41152;-63
2022/08/13 08:45:03;;;;;;;8.20;3.40;;;;;39.14;97065.00;;;;110771;1249;41269;-64
2022/08/13 08:47:41;;;;;;;8.70;3.80;;;;;39.50;97066.40;;;;110612;1249;41138;-65
2022/08/13 08:50:17;;;;;;;8.30;3.50;;;;;39.74;97065.20;;;;111059;1248;41927;-65
2022/08/13 08:56:05;;;;;;;8.70;3.80;;;;;39.34;97051.60;;;;110896;1248;41409;-65
2022/08/13 08:58:38;;;;;;;8.30;3.70;;;;;39.20;97051.20;;;;111086;1247;41550;-64
2022/08/13 09:01:10;;;;;;;7.70;3.30;;;;;38.40;97048.60;;;;110995;1247;42450;-63
2022/08/13 09:03:42;;;;;;;8.30;3.70;;;;;37.90;97048.00;;;;111103;1250;41748;-63
2022/08/13 09:06:18;;;;;;;9.30;4.40;;;;;38.00;97046.60;;;;110708;1250;41139;-63
2022/08/13 09:08:53;;;;;;;12.70;3.60;;;;;38.20;97044.40;;;;110760;1250;41191;-63
2022/08/13 09:11:23;;;;;;;8.40;3.60;;;;;38.34;97044.80;;;;110873;1249;42426;-63
2022/08/13 09:13:52;;;;;;;10.00;3.60;;;;;37.74;97047.40;;;;110786;1250;40878;-63
2022/08/13 09:16:21;;;;;;;9.10;4.40;;;;;37.74;97041.00;;;;110911;1249;41262;-63
2022/08/13 09:18:50;;;;;;;12.10;5.20;;;;;37.56;97042.80;;;;110946;1249;42378;-63
2022/08/13 09:21:21;;;;;;;9.50;4.80;;;;;37.40;97042.40;;;;110621;1249;42341;-63
2022/08/13 09:23:55;;;;;;;9.10;4.10;;;;;36.76;97038.60;;;;110819;1250;41178;-63
2022/08/13 09:26:47;;;;;;;7.90;3.80;;;;;36.52;97037.20;;;;110764;1249;41827;-63
2022/08/13 09:29:27;;;;;;;9.10;4.00;;;;;36.28;97033.20;;;;110964;1250;41152;-63
2022/08/13 09:31:58;;;;;;;9.70;4.70;;;;;36.44;97034.40;;;;110884;1249;41130;-63
2022/08/13 09:34:29;;;;;;;10.00;3.70;;;;;35.80;97032.60;;;;110828;1250;41156;-63
2022/08/13 09:37:01;;;;;;;12.40;5.20;;;;;36.60;97030.80;;;;110850;1249;41275;-63
2022/08/13 09:39:36;;;;;;;9.10;4.00;;;;;37.08;97024.20;;;;110690;1250;41181;-63
2022/08/13 09:42:14;;;;;;;8.60;4.00;;;;;36.28;97018.20;;;;110965;1250;41251;-63
2022/08/13 09:44:42;;;;;;;10.30;4.50;;;;;36.52;97024.60;;;;110968;1250;41144;-63
2022/08/13 09:47:11;;;;;;;8.90;3.60;;;;;36.08;97020.20;;;;110707;1250;41139;-63
2022/08/13 09:50:00;;;;;;;9.80;4.40;;;;;36.14;97021.40;;;;110966;1249;42439;-63
2022/08/13 09:52:31;;;;;;;10.50;3.80;;;;;36.38;97019.20;;;;110811;1250;41437;-64
2022/08/13 09:55:00;;;;;;;9.10;3.80;;;;;36.72;97022.00;;;;110826;1249;41180;-64
2022/08/13 09:57:29;;;;;;;8.10;3.40;;;;;37.08;97021.60;;;;110597;1250;42182;-64
2022/08/13 09:59:57;;;;;;;10.00;4.10;;;;;37.68;97015.40;;;;110670;1249;41203;-63
2022/08/13 10:02:26;;;;;;;9.70;3.50;;;;;38.30;97013.60;;;;110640;1250;41172;-64
2022/08/13 10:04:57;;;;;;;7.70;3.50;;;;;38.92;97009.20;;;;110677;1250;41724;-63
2022/08/13 10:07:25;;;;;;;8.90;3.10;;;;;39.44;97009.80;;;;110725;1252;41882;-63
2022/08/13 10:09:54;;;;;;;10.40;4.30;;;;;39.86;97008.80;;;;110849;1249;41624;-64
2022/08/13 10:12:43;;;;;;;8.60;3.50;;;;;40.40;97003.80;;;;110637;1249;42126;-64
2022/08/13 10:15:14;;;;;;;9.90;4.30;;;;;40.58;97004.40;;;;110635;1249;41145;-64
2022/08/13 10:17:53;;;;;;;9.50;3.70;;;;;40.80;96995.80;;;;110650;1249;41252;-65
2022/08/13 10:20:28;;;;;;;9.60;4.20;;;;;40.90;96991.00;;;;110618;1249;41191;-65
2022/08/13 10:22:57;;;;;;;7.40;3.00;;;;;41.00;96992.20;;;;110611;1251;41188;-64
2022/08/13 10:25:28;;;;;;;7.90;3.10;;;;;41.00;96987.20;;;;110715;1249;41568;-65
2022/08/13 10:28:15;;;;;;;8.20;3.70;;;;;41.34;96988.80;;;;110654;1250;41185;-66
2022/08/13 10:30:55;;;;;;;9.00;3.70;;;;;41.50;96992.00;;;;110837;1249;41379;-64
2022/08/13 10:33:27;;;;;;;9.60;4.00;;;;;41.40;96987.40;;;;110683;1248;41266;-64
2022/08/13 10:35:56;;;;;;;7.50;3.40;;;;;41.22;96987.40;;;;110682;1248;41242;-63
2022/08/13 10:38:26;;;;;;;8.00;3.50;;;;;41.08;96986.20;;;;110712;1249;41711;-64
2022/08/13 10:40:58;;;;;;;9.10;3.60;;;;;41.00;96983.80;;;;110677;1249;42007;-65
2022/08/13 10:43:27;;;;;;;7.20;3.40;;;;;41.00;96979.20;;;;110841;1249;41838;-64
2022/08/13 10:45:58;;;;;;;8.60;3.70;;;;;41.18;96981.40;;;;110817;1249;41171;-66
2022/08/13 10:48:40;;;;;;;8.30;3.60;;;;;40.92;96973.80;;;;110742;1249;41693;-65
2022/08/13 10:51:09;;;;;;;8.70;4.20;;;;;40.96;96975.80;;;;111758;1249;41143;-65
2022/08/13 10:56:32;;;;;;;10.20;3.80;;;;;40.12;96974.40;;;;110875;1249;41159;-64
2022/08/13 10:59:03;;;;;;;11.30;3.60;;;;;40.00;96974.80;;;;111093;1249;41146;-66
2022/08/13 11:01:32;;;;;;;8.00;3.40;;;;;39.70;96977.20;;;;110952;1247;41741;-65
2022/08/13 11:04:02;;;;;;;7.30;3.10;;;;;39.88;96970.80;;;;110960;1249;41137;-65
2022/08/13 11:06:35;;;;;;;7.20;3.00;;;;;40.04;96966.40;;;;110869;1250;41537;-65
2022/08/13 11:09:05;;;;;;;7.30;2.90;;;;;40.16;96959.80;;;;111012;1249;41315;-66
2022/08/13 11:11:49;;;;;;;9.00;3.30;;;;;40.18;96962.20;;;;110854;1248;41267;-64
2022/08/13 11:14:23;;;;;;;8.30;3.20;;;;;40.40;96957.40;;;;110905;1248;41644;-64
2022/08/13 11:16:59;;;;;;;10.30;3.70;;;;;40.68;96954.80;;;;110914;1249;41255;-65
2022/08/13 11:19:34;;;;;;;7.50;3.10;;;;;41.20;96949.80;;;;110872;1247;41629;-65
2022/08/13 11:22:17;;;;;;;8.10;3.70;;;;;41.48;96946.80;;;;110766;1250;41108;-65
2022/08/13 11:24:56;;;;;;;7.30;2.70;;;;;42.06;96946.20;;;;111065;1249;41522;-64
2022/08/13 11:27:25;;;;;;;8.40;3.30;;;;;42.82;96941.60;;;;110952;1249;41261;-65
2022/08/13 11:30:14;;;;;;;7.50;2.90;;;;;43.14;96943.80;;;;110880;1248;41719;-64
2022/08/13 11:32:59;;;;;;;8.20;3.60;;;;;43.48;96943.20;;;;110769;1249;41148;-65
2022/08/13 11:35:27;;;;;;;8.00;3.10;;;;;43.82;96927.40;;;;110970;1247;41275;-65
2022/08/13 11:37:56;;;;;;;6.60;2.80;;;;;43.62;96928.80;;;;110933;1250;42430;-64
2022/08/13 11:40:25;;;;;;;7.80;3.20;;;;;44.06;96930.80;;;;111022;1249;42123;-65
2022/08/13 11:43:01;;;;;;;7.50;2.90;;;;;44.40;96931.60;;;;110854;1249;41140;-65
2022/08/13 11:45:34;;;;;;;8.00;3.10;;;;;44.60;96930.40;;;;111099;1249;41752;-63
2022/08/13 11:48:08;;;;;;;6.90;2.80;;;;;44.26;96928.40;;;;111118;1248;42000;-65
2022/08/13 11:50:37;;;;;;;7.70;2.80;;;;;44.30;96927.20;;;;111094;1249;41955;-65
2022/08/13 11:53:06;;;;;;;;;;;;;44.60;96927.40;;;;111028;1249;42476;-65
2022/08/13 11:55:37;;;;;;;8.10;3.00;;;;;44.54;96927.40;;;;111119;1249;41794;-65
2022/08/13 11:58:25;;;;;;;6.70;2.60;;;;;44.80;96926.20;;;;111065;1250;41724;-65
2022/08/13 12:01:16;;;;;;;7.00;3.10;;;;;45.10;96924.40;;;;111036;1249;41148;-66
2022/08/13 12:03:53;;;;;;;7.80;2.80;;;;;45.30;96920.60;;;;110844;1250;41263;-65
2022/08/13 12:06:42;;;;;;;7.80;3.10;;;;;44.42;96914.00;;;;111008;1249;42063;-65
2022/08/13 12:09:19;;;;;;;7.60;2.90;;;;;44.80;96913.20;;;;110943;1249;41154;-65
2022/08/13 12:11:51;;;;;;;7.30;3.00;;;;;44.86;96910.20;;;;110854;1249;41149;-65
2022/08/13 12:14:39;;;;;;;9.10;3.30;;;;;45.30;96905.20;;;;110780;1250;41140;-65
2022/08/13 12:17:08;;;;;;;9.00;3.20;;;;;44.34;96907.00;;;;110953;1249;42887;-65
2022/08/13 12:19:38;;;;;;;7.10;3.00;;;;;43.30;96907.00;;;;110646;1249;41606;-64
2022/08/13 12:22:06;;;;;;;7.60;3.10;;;;;43.02;96904.20;;;;110996;1250;41611;-65
2022/08/13 12:24:35;;;;;;;7.10;2.70;;;;;42.46;96904.80;;;;110774;1248;41377;-65
2022/08/13 12:27:04;;;;;;;;;;;;;42.66;96904.60;;;;110714;1249;41271;-65
2022/08/13 12:29:35;;;;;;;7.90;3.10;;;;;42.90;96901.60;;;;110725;1249;42862;-65
2022/08/13 12:32:14;;;;;;;7.40;3.40;;;;;42.70;96905.80;;;;110989;1249;41260;-65
2022/08/13 12:34:45;;;;;;;6.70;2.80;;;;;42.48;96904.00;;;;111022;1249;41925;-64
2022/08/13 12:37:15;;;;;;;7.70;3.20;;;;;42.46;96903.60;;;;110940;1249;41172;-64
2022/08/13 12:39:52;;;;;;;7.40;3.50;;;;;42.58;96901.00;;;;110627;1249;41722;-64
2022/08/13 12:42:24;;;;;;;7.90;3.60;;;;;42.40;96891.00;;;;110930;1249;41616;-65
2022/08/13 12:44:56;;;;;;;9.60;2.90;;;;;41.98;96887.80;;;;110936;1249;41312;-64
2022/08/13 12:47:32;;;;;;;7.20;3.00;;;;;41.30;96890.20;;;;110808;1249;41161;-64
2022/08/13 12:50:02;;;;;;;10.30;3.20;;;;;41.02;96890.60;;;;110685;1249;41143;-64
2022/08/13 12:52:34;;;;;;;7.90;3.20;;;;;41.10;96890.60;;;;110691;1249;41152;-64
2022/08/13 12:55:06;;;;;;;7.60;3.60;;;;;41.10;96889.40;;;;110788;1250;41619;-64
2022/08/13 12:57:40;;;;;;;7.40;2.90;;;;;38.84;96890.80;;;;110654;1249;41248;-64
2022/08/13 13:00:29;;;;;;;7.00;2.70;;;;;38.90;96888.80;;;;110918;1249;41146;-63
2022/08/13 13:03:00;;;;;;;9.40;3.30;;;;;38.40;96891.00;;;;110834;1247;41194;-64
2022/08/13 13:05:30;;;;;;;8.20;3.40;;;;;37.92;96886.40;;;;110687;1250;41157;-63
2022/08/13 13:08:27;;;;;;;8.00;3.20;;;;;37.42;96886.40;;;;110978;1247;41152;-64